Time;durP1;ratioP1;P1;durP2;ratioP2;P2;SDS_P1;SDS_P2;PMS_P1;PMS_P2;Temp;Humidity;BMP_temperature;BMP_pressure;BME280_temperature;BME280_humidity;BME280_pressure;Samples;Min_cycle;Max_cycle;Signal;HPM_P1;HPM_P2
2022/05/01 00:00:28;;;;;;;5.90;4.93;;;;;;;14.08;65.70;101706.88;5004564;28;102605;-50
2022/05/01 00:02:55;;;;;;;7.60;5.30;;;;;;;14.08;65.73;101709.63;5010897;28;103975;-50
2022/05/01 00:05:22;;;;;;;8.05;5.65;;;;;;;14.08;65.69;101706.88;5000911;28;101973;-48
2022/05/01 00:07:49;;;;;;;6.95;5.18;;;;;;;14.08;65.85;101711.53;4993546;28;101993;-48
2022/05/01 00:10:16;;;;;;;5.88;5.10;;;;;;;14.08;65.81;101715.09;5001546;28;102153;-49
2022/05/01 00:12:45;;;;;;;8.30;5.57;;;;;;;14.07;65.88;101718.94;5001016;28;103909;-51
2022/05/01 00:15:17;;;;;;;7.10;5.03;;;;;;;14.08;65.87;101715.09;4994135;28;102316;-48
2022/05/01 00:17:44;;;;;;;6.68;5.18;;;;;;;14.08;65.85;101720.56;4993215;28;101835;-49
2022/05/01 00:20:11;;;;;;;8.05;4.90;;;;;;;14.06;65.93;101714.53;5007034;28;102258;-48
2022/05/01 00:22:38;;;;;;;6.25;5.07;;;;;;;14.08;65.88;101715.09;4992788;28;103879;-48
2022/05/01 00:25:05;;;;;;;7.45;4.85;;;;;;;14.07;65.62;101713.47;5009527;28;102031;-48
2022/05/01 00:27:31;;;;;;;7.40;4.90;;;;;;;14.07;65.51;101710.72;5006512;28;102110;-49
2022/05/01 00:29:59;;;;;;;6.80;4.72;;;;;;;14.08;65.62;101706.88;4996263;28;103816;-49
2022/05/01 00:32:26;;;;;;;6.75;5.10;;;;;;;14.07;66.05;101702.50;4991929;28;103859;-48
2022/05/01 00:37:38;;;;;;;8.73;4.65;;;;;;;14.07;65.88;101708.00;4992761;28;102356;-49
2022/05/01 00:40:05;;;;;;;7.57;5.00;;;;;;;14.07;65.93;101707.16;4993522;28;102581;-49
2022/05/01 00:42:33;;;;;;;6.60;5.32;;;;;;;14.07;65.61;101708.00;4992008;28;104998;-51
2022/05/01 00:45:01;;;;;;;5.53;4.57;;;;;;;14.08;65.91;101708.81;5009906;28;102363;-49
2022/05/01 00:47:27;;;;;;;6.07;4.75;;;;;;;14.08;65.87;101706.88;5011173;28;101999;-48
2022/05/01 00:49:54;;;;;;;6.15;4.50;;;;;;;14.07;65.74;101718.94;4998734;28;102093;-51
2022/05/01 00:52:23;;;;;;;5.93;4.95;;;;;;;14.06;66.02;101709.06;4992456;28;103969;-49
2022/05/01 00:54:49;;;;;;;7.65;4.90;;;;;;;14.06;65.98;101709.06;5012799;28;101825;-48
2022/05/01 00:57:17;;;;;;;6.70;4.90;;;;;;;14.06;65.64;101706.31;5012663;28;101846;-49
2022/05/01 00:59:45;;;;;;;7.68;4.90;;;;;;;14.06;66.05;101706.31;5010934;28;102111;-51
2022/05/01 01:02:13;;;;;;;6.32;4.50;;;;;;;14.05;65.89;101704.69;4994793;28;103980;-48
2022/05/01 01:04:40;;;;;;;5.82;4.70;;;;;;;14.06;66.08;101706.31;4992987;28;102469;-48
2022/05/01 01:07:06;;;;;;;7.65;4.93;;;;;;;14.07;65.96;101702.50;4992529;28;101770;-49
2022/05/01 01:09:34;;;;;;;6.20;4.50;;;;;;;14.06;66.01;101709.06;4992447;28;102143;-48
2022/05/01 01:14:46;;;;;;;5.78;4.80;;;;;;;14.07;65.87;101712.66;5002156;28;102007;-49
2022/05/01 01:17:14;;;;;;;8.25;4.50;;;;;;;14.06;66.02;101700.84;5007574;28;102717;-49
2022/05/01 01:19:41;;;;;;;5.30;4.32;;;;;;;14.07;65.83;101707.16;5003475;28;102398;-48
2022/05/01 01:22:09;;;;;;;7.10;4.30;;;;;;;14.05;65.91;101701.94;4991702;28;103913;-49
2022/05/01 01:24:40;;;;;;;5.85;4.53;;;;;;;14.05;66.11;101698.41;4997232;28;101967;-48
2022/05/01 01:27:07;;;;;;;6.68;4.80;;;;;;;14.05;66.14;101704.69;5005057;28;102205;-50
2022/05/01 01:32:19;;;;;;;5.28;4.03;;;;;;;14.05;65.97;101699.22;5008567;28;104003;-52
2022/05/01 01:34:49;;;;;;;6.38;4.53;;;;;;;14.05;65.97;101706.59;4993312;28;102304;-50
2022/05/01 01:37:18;;;;;;;5.50;4.50;;;;;;;14.05;66.00;101706.59;4992151;28;102543;-48
2022/05/01 01:39:46;;;;;;;6.20;4.57;;;;;;;14.06;65.77;101711.78;4996381;28;102111;-49
2022/05/01 01:42:15;;;;;;;5.60;4.20;;;;;;;14.06;66.18;101709.06;5011351;28;103933;-48
2022/05/01 01:44:44;;;;;;;5.97;4.75;;;;;;;14.06;65.90;101710.97;5012036;28;102614;-51
2022/05/01 01:47:12;;;;;;;4.72;4.00;;;;;;;14.05;65.86;101710.16;5007319;28;102287;-49
2022/05/01 01:49:38;;;;;;;4.90;4.22;;;;;;;14.06;66.33;101714.53;4992184;28;102017;-48
2022/05/01 01:52:05;;;;;;;5.15;4.47;;;;;;;14.05;66.12;101721.09;4994176;28;103905;-49
2022/05/01 01:54:33;;;;;;;5.72;4.70;;;;;;;14.05;65.98;101715.63;4991610;28;102144;-48
2022/05/01 01:57:01;;;;;;;6.10;4.35;;;;;;;14.04;65.91;101711.25;4991709;28;102348;-51
2022/05/01 01:59:27;;;;;;;5.60;4.45;;;;;;;14.04;66.07;101719.47;5000113;28;102132;-50
2022/05/01 02:01:54;;;;;;;5.35;4.32;;;;;;;14.04;65.85;101714.00;4990409;28;103826;-54
2022/05/01 02:04:20;;;;;;;6.70;4.68;;;;;;;14.05;66.08;101717.56;4991602;28;101737;-48
2022/05/01 02:06:47;;;;;;;5.53;4.10;;;;;;;14.04;66.20;101714.00;4991753;28;102265;-50
2022/05/01 02:09:15;;;;;;;6.85;4.90;;;;;;;14.04;65.78;101714.00;4995731;28;101966;-49
2022/05/01 02:11:45;;;;;;;5.55;4.10;;;;;;;14.05;65.89;101712.06;4994416;28;103944;-50
2022/05/01 02:14:11;;;;;;;5.25;4.20;;;;;;;14.05;65.97;101715.63;4991614;28;102430;-48
2022/05/01 02:16:39;;;;;;;5.30;4.35;;;;;;;14.05;66.12;101714.81;4996994;28;102585;-49
2022/05/01 02:19:06;;;;;;;4.95;3.85;;;;;;;14.04;66.28;101727.69;4996752;28;102567;-52
2022/05/01 02:21:40;;;;;;;5.78;4.28;;;;;;;14.04;66.16;101724.94;4992254;28;104044;-48
2022/05/01 02:24:08;;;;;;;4.95;4.20;;;;;;;14.05;65.96;101723.84;5009821;28;102393;-49
2022/05/01 02:26:35;;;;;;;5.70;4.15;;;;;;;14.04;65.91;101722.22;5004191;28;102149;-48
2022/05/01 02:29:09;;;;;;;5.72;4.35;;;;;;;14.04;66.21;101724.94;5003852;28;103838;-48
2022/05/01 02:31:38;;;;;;;4.70;3.78;;;;;;;14.05;65.88;101720.28;5008412;28;103918;-49
2022/05/01 02:34:04;;;;;;;4.35;3.78;;;;;;;14.05;66.45;101721.09;5011449;28;101948;-50
2022/05/01 02:36:31;;;;;;;6.00;4.28;;;;;;;14.03;65.79;101715.09;5011041;28;102084;-51
2022/05/01 02:38:57;;;;;;;4.57;3.88;;;;;;;14.06;66.22;101717.28;5011418;28;102645;-52
2022/05/01 02:41:24;;;;;;;5.15;3.92;;;;;;;14.05;66.42;101712.06;4998707;28;104922;-48
2022/05/01 02:43:54;;;;;;;5.47;4.20;;;;;;;14.05;66.18;101710.16;4991542;28;102124;-49
2022/05/01 02:46:22;;;;;;;5.28;4.25;;;;;;;14.04;66.00;101719.47;4996518;28;102655;-48
2022/05/01 02:48:49;;;;;;;5.25;4.05;;;;;;;14.05;66.18;101726.59;5011239;28;102458;-49
2022/05/01 02:51:16;;;;;;;4.63;4.13;;;;;;;14.06;66.11;101727.41;4998937;28;103965;-52
2022/05/01 02:53:43;;;;;;;5.30;4.07;;;;;;;14.05;66.13;101723.03;4994015;28;102138;-51
2022/05/01 02:56:10;;;;;;;4.30;3.90;;;;;;;14.04;66.05;101724.94;5011254;28;102307;-49
2022/05/01 02:58:36;;;;;;;5.97;4.22;;;;;;;14.04;66.20;101727.69;5011684;28;102459;-49
2022/05/01 03:01:03;;;;;;;5.03;4.30;;;;;;;14.06;66.32;101744.63;5003444;28;103943;-48
2022/05/01 03:03:37;;;;;;;4.57;4.07;;;;;;;14.04;66.25;101741.38;4991305;28;102255;-49
2022/05/01 03:06:04;;;;;;;4.88;3.90;;;;;;;14.05;66.11;101736.72;4990611;28;101951;-49
2022/05/01 03:08:31;;;;;;;5.50;4.30;;;;;;;14.05;66.34;101743.00;4994137;28;102260;-50
2022/05/01 03:11:01;;;;;;;6.65;4.30;;;;;;;14.06;66.02;101743.81;5014405;28;104003;-49
2022/05/01 03:13:28;;;;;;;5.63;4.22;;;;;;;14.04;66.36;101741.38;5015158;27;102804;-51
2022/05/01 03:15:55;;;;;;;10.73;4.22;;;;;;;14.04;66.37;101741.38;5006673;28;101953;-49
2022/05/01 03:23:53;;;;;;;7.28;4.38;;;;;;;14.04;66.00;101748.75;4991031;28;102466;-49
2022/05/01 03:26:20;;;;;;;5.38;3.70;;;;;;;14.05;65.94;101758.59;4991076;28;102267;-47
2022/05/01 03:28:47;;;;;;;4.90;3.88;;;;;;;14.05;66.32;101761.34;4991769;28;102436;-48
2022/05/01 03:31:14;;;;;;;5.15;4.28;;;;;;;14.04;66.35;101757.78;4999081;28;104164;-49
2022/05/01 03:33:44;;;;;;;5.68;4.13;;;;;;;14.05;66.03;101769.56;4996178;28;102465;-48
2022/05/01 03:36:12;;;;;;;5.15;3.80;;;;;;;14.04;66.10;101763.25;4991168;28;101916;-48
2022/05/01 03:38:40;;;;;;;5.53;4.30;;;;;;;14.04;66.42;101763.25;4994986;28;102410;-48
2022/05/01 03:41:09;;;;;;;7.17;4.20;;;;;;;14.05;66.39;101769.56;4994590;28;104062;-48
2022/05/01 03:43:38;;;;;;;5.97;3.80;;;;;;;14.04;66.12;101768.75;4994118;28;102066;-49
2022/05/01 03:46:05;;;;;;;4.65;3.97;;;;;;;14.03;66.18;101761.63;4993926;28;101823;-49
2022/05/01 03:48:32;;;;;;;4.88;4.03;;;;;;;14.04;66.34;101768.75;4996867;28;102129;-48
2022/05/01 03:51:01;;;;;;;4.90;3.97;;;;;;;14.04;66.26;101760.53;5016892;28;103901;-50
2022/05/01 03:53:32;;;;;;;4.97;3.85;;;;;;;14.03;66.37;101761.63;5013114;28;102435;-48
2022/05/01 03:55:59;;;;;;;5.95;3.95;;;;;;;14.04;66.38;101760.53;5013363;28;102641;-49
2022/05/01 03:58:29;;;;;;;5.10;3.65;;;;;;;14.03;66.12;101761.63;5014893;28;102165;-48
2022/05/01 04:00:55;;;;;;;5.95;3.90;;;;;;;14.04;66.27;101762.44;5013503;28;103945;-50
2022/05/01 04:03:22;;;;;;;4.65;4.07;;;;;;;14.03;66.26;101767.09;5013017;28;102057;-49
2022/05/01 04:05:51;;;;;;;4.45;4.00;;;;;;;14.03;66.30;101775.31;4995354;28;102342;-50
2022/05/01 04:08:19;;;;;;;4.35;3.80;;;;;;;14.03;66.38;101772.56;4997318;28;102533;-51
2022/05/01 04:10:47;;;;;;;5.88;3.67;;;;;;;14.03;66.12;101778.06;5013497;28;103895;-50
2022/05/01 04:13:14;;;;;;;3.83;3.42;;;;;;;14.03;66.46;101775.31;4999574;28;102265;-48
2022/05/01 04:15:42;;;;;;;;;;;;;;;14.03;66.04;101786.25;4994335;28;102048;-48
2022/05/01 04:18:10;;;;;;;5.38;3.67;;;;;;;14.03;66.23;101789.00;5013198;28;102171;-48
2022/05/01 04:20:37;;;;;;;4.07;3.60;;;;;;;14.03;66.05;101794.47;4994225;28;104049;-49
2022/05/01 04:23:05;;;;;;;4.68;3.90;;;;;;;14.03;66.18;101789.00;4995301;28;102629;-51
2022/05/01 04:25:33;;;;;;;4.60;3.70;;;;;;;14.03;66.33;101780.78;5004769;28;102072;-50
2022/05/01 04:28:03;;;;;;;5.13;4.00;;;;;;;14.04;66.38;101795.28;4997280;28;102194;-48
2022/05/01 04:30:33;;;;;;;4.05;3.65;;;;;;;14.03;66.39;101788.16;4998236;28;103887;-48
2022/05/01 04:33:05;;;;;;;4.53;3.60;;;;;;;14.03;66.29;101789.00;5006262;28;102286;-48
2022/05/01 04:35:37;;;;;;;4.25;3.65;;;;;;;14.03;66.29;101785.41;5010809;28;102739;-49
2022/05/01 04:38:05;;;;;;;4.20;3.80;;;;;;;14.03;66.25;101794.47;5015137;28;102519;-48
2022/05/01 04:40:34;;;;;;;4.53;3.80;;;;;;;14.02;66.27;101787.31;5012883;28;103924;-51
2022/05/01 04:43:03;;;;;;;4.47;4.07;;;;;;;14.03;66.13;101789.00;5013469;28;102129;-48
2022/05/01 04:45:30;;;;;;;4.53;3.88;;;;;;;14.02;66.39;101787.31;5008108;28;102621;-48
2022/05/01 04:47:57;;;;;;;7.25;4.15;;;;;;;14.03;66.18;101788.16;5002075;28;102419;-49
2022/05/01 04:50:24;;;;;;;5.00;3.90;;;;;;;14.03;66.27;101786.25;5012197;28;104084;-48
2022/05/01 04:52:51;;;;;;;4.55;4.15;;;;;;;14.02;65.97;101792.81;5013208;28;102125;-50
2022/05/01 04:55:19;;;;;;;5.30;3.97;;;;;;;14.02;66.36;101790.06;5011377;28;102367;-48
2022/05/01 04:57:46;;;;;;;4.80;4.25;;;;;;;14.04;66.50;101787.06;4998640;28;102474;-49
2022/05/01 05:00:14;;;;;;;4.93;3.97;;;;;;;14.03;66.13;101783.53;4992152;28;103913;-48
2022/05/01 05:02:43;;;;;;;4.18;3.78;;;;;;;14.03;66.39;101789.00;4995543;28;102635;-48
2022/05/01 05:05:11;;;;;;;4.18;3.78;;;;;;;14.03;66.13;101789.00;4992643;28;102425;-50
2022/05/01 05:07:39;;;;;;;4.20;3.80;;;;;;;14.04;66.38;101790.63;4993332;28;102174;-49
2022/05/01 05:10:08;;;;;;;4.50;3.78;;;;;;;14.04;66.07;101795.28;4992248;28;104083;-49
2022/05/01 05:12:35;;;;;;;5.85;4.20;;;;;;;14.04;66.05;101789.81;5003832;28;102810;-50
2022/05/01 05:15:03;;;;;;;5.68;4.30;;;;;;;14.03;66.09;101791.72;4997033;27;102432;-49
2022/05/01 05:17:32;;;;;;;4.07;3.70;;;;;;;14.03;66.07;101791.72;5013394;27;102179;-48
2022/05/01 05:19:58;;;;;;;5.40;4.07;;;;;;;14.04;66.29;101795.28;5012129;28;104054;-49
2022/05/01 05:22:25;;;;;;;4.55;4.10;;;;;;;14.03;66.02;101797.22;5010608;28;102406;-48
2022/05/01 05:24:51;;;;;;;4.90;4.07;;;;;;;14.03;66.02;101799.94;5011838;28;102498;-48
2022/05/01 05:27:20;;;;;;;4.10;3.70;;;;;;;14.04;66.25;101803.50;5013133;28;102051;-49
2022/05/01 05:29:47;;;;;;;4.28;3.90;;;;;;;14.03;66.07;101794.47;5011376;28;104640;-49
2022/05/01 05:32:14;;;;;;;4.50;3.60;;;;;;;14.03;66.01;101805.41;5013224;28;101770;-50
2022/05/01 05:34:42;;;;;;;4.78;4.13;;;;;;;14.04;65.92;101796.09;5011602;28;102391;-48
2022/05/01 05:37:08;;;;;;;5.82;4.10;;;;;;;14.04;66.12;101800.75;5013326;28;102571;-48
2022/05/01 05:39:35;;;;;;;4.97;3.85;;;;;;;14.03;66.04;101805.41;5011725;28;103862;-49
2022/05/01 05:42:02;;;;;;;5.60;4.30;;;;;;;14.04;66.04;101804.31;5012604;28;102320;-48
2022/05/01 05:44:29;;;;;;;4.30;3.90;;;;;;;14.05;66.14;101807.88;5011765;28;102204;-47
2022/05/01 05:46:55;;;;;;;5.25;4.05;;;;;;;14.04;66.02;101800.75;5008714;28;102138;-48
2022/05/01 05:49:22;;;;;;;5.32;4.20;;;;;;;14.04;66.13;101801.59;4991330;28;103919;-48
2022/05/01 05:51:49;;;;;;;5.43;3.95;;;;;;;14.06;65.84;101804.84;5008040;28;101966;-50
2022/05/01 05:54:17;;;;;;;5.78;4.75;;;;;;;14.07;65.80;101808.44;4998951;28;102176;-49
2022/05/01 05:56:44;;;;;;;4.78;4.13;;;;;;;14.06;65.85;101804.84;5021281;28;102310;-49
2022/05/01 05:59:11;;;;;;;5.72;4.18;;;;;;;14.07;65.57;101811.19;5014236;27;103884;-51
2022/05/01 06:01:37;;;;;;;4.90;4.40;;;;;;;14.07;65.87;101812.00;5011565;28;101911;-50
2022/05/01 06:04:04;;;;;;;5.32;4.03;;;;;;;14.07;65.73;101805.72;5011741;28;101987;-50
2022/05/01 06:06:30;;;;;;;5.13;4.22;;;;;;;14.07;65.50;101809.25;5010568;28;102260;-48
2022/05/01 06:08:59;;;;;;;6.00;5.40;;;;;;;14.05;65.54;101807.88;5007855;28;104094;-48
2022/05/01 06:11:26;;;;;;;5.15;4.65;;;;;;;14.05;65.70;101807.88;5010022;28;102045;-51
2022/05/01 06:13:56;;;;;;;6.43;4.47;;;;;;;14.05;65.59;101811.44;4997802;28;103784;-51
2022/05/01 06:16:23;;;;;;;4.90;4.30;;;;;;;14.06;65.26;101812.25;5008766;28;102092;-49
2022/05/01 06:18:49;;;;;;;5.72;4.53;;;;;;;14.06;65.19;101815.81;5009674;28;104086;-49
2022/05/01 06:21:16;;;;;;;4.82;4.15;;;;;;;14.06;64.76;101815.81;4991921;28;102416;-49
2022/05/01 06:23:48;;;;;;;5.78;4.72;;;;;;;14.04;65.08;101812.53;5001957;28;102761;-50
2022/05/01 06:26:15;;;;;;;;;;;;;;;14.04;65.08;101823.47;5004509;28;102356;-49
2022/05/01 06:28:42;;;;;;;6.97;4.70;;;;;;;14.04;64.91;101820.75;5004073;28;103959;-50
2022/05/01 06:31:08;;;;;;;5.40;4.47;;;;;;;14.04;64.83;101822.66;4997699;28;102441;-49
2022/05/01 06:33:35;;;;;;;5.57;4.70;;;;;;;14.04;64.63;101828.94;5005890;28;102742;-49
2022/05/01 06:36:04;;;;;;;4.10;3.80;;;;;;;14.04;64.95;101820.75;5011243;28;102801;-51
2022/05/01 06:38:30;;;;;;;5.80;4.78;;;;;;;14.04;64.70;101823.47;5011131;28;103902;-48
2022/05/01 06:40:57;;;;;;;5.57;4.53;;;;;;;14.04;64.61;101818.00;5011494;28;101870;-49
2022/05/01 06:43:27;;;;;;;5.63;5.13;;;;;;;14.05;64.79;101830.59;5011049;28;102138;-49
2022/05/01 06:45:53;;;;;;;6.05;4.63;;;;;;;14.05;64.86;101816.91;4992760;28;102818;-50
2022/05/01 06:48:21;;;;;;;4.82;4.20;;;;;;;14.04;64.72;101828.94;5009824;28;104064;-50
2022/05/01 06:50:48;;;;;;;4.77;4.27;;;;;;;14.04;64.41;101828.94;5011402;28;101846;-50
2022/05/01 06:53:15;;;;;;;5.20;4.70;;;;;;;14.06;64.89;101826.75;5010914;28;102303;-51
2022/05/01 06:55:42;;;;;;;5.97;4.90;;;;;;;14.06;64.94;101826.75;5011951;28;101992;-48
2022/05/01 06:58:09;;;;;;;5.45;4.95;;;;;;;14.06;64.60;101826.75;5010997;28;103978;-48
2022/05/01 07:00:37;;;;;;;5.03;4.53;;;;;;;14.07;64.83;101822.94;5006970;28;102525;-49
2022/05/01 07:03:05;;;;;;;;;;;;;;;14.09;64.96;101828.97;5001930;28;102031;-49
2022/05/01 07:05:32;;;;;;;4.28;3.88;;;;;;;14.11;64.62;101826.78;5008233;28;102644;-49
2022/05/01 07:07:58;;;;;;;4.25;3.85;;;;;;;14.12;64.97;101825.69;4998158;28;103970;-49
2022/05/01 07:10:25;;;;;;;7.35;3.80;;;;;;;14.16;64.88;101832.28;4990768;28;102223;-49
2022/05/01 07:12:52;;;;;;;6.18;4.10;;;;;;;14.18;64.73;101824.63;4993679;28;102213;-48
2022/05/01 07:15:19;;;;;;;4.07;3.47;;;;;;;14.21;64.85;101822.44;4995618;28;102130;-49
2022/05/01 07:17:47;;;;;;;5.28;4.30;;;;;;;14.23;64.95;101825.72;4994254;28;103935;-50
2022/05/01 07:20:14;;;;;;;4.25;3.85;;;;;;;14.24;65.00;101819.16;5008299;28;102491;-49
2022/05/01 07:22:41;;;;;;;4.40;3.47;;;;;;;14.27;64.90;101826.84;5013618;28;102313;-49
2022/05/01 07:25:08;;;;;;;4.82;3.95;;;;;;;14.29;64.78;101819.19;5015164;28;102162;-50
2022/05/01 07:27:35;;;;;;;5.28;3.97;;;;;;;14.31;64.99;101819.72;5012205;28;103835;-49
2022/05/01 07:30:03;;;;;;;4.30;3.90;;;;;;;14.32;64.89;101824.13;5013922;28;102616;-51
2022/05/01 07:32:30;;;;;;;4.68;3.70;;;;;;;14.34;64.71;101827.41;5014446;28;102424;-49
2022/05/01 07:34:58;;;;;;;4.35;3.65;;;;;;;14.35;64.50;101829.91;5014665;28;102166;-49
2022/05/01 07:37:26;;;;;;;4.10;3.70;;;;;;;14.38;64.73;101828.50;5013350;28;103837;-50
2022/05/01 07:39:54;;;;;;;4.10;3.70;;;;;;;14.39;64.63;101822.78;5014138;28;102411;-49
2022/05/01 07:42:21;;;;;;;4.20;3.80;;;;;;;14.42;64.81;101818.66;5014016;28;102472;-50
2022/05/01 07:44:49;;;;;;;5.45;3.90;;;;;;;14.43;64.54;101823.06;5015189;28;102399;-51
2022/05/01 07:47:16;;;;;;;3.90;3.55;;;;;;;14.44;64.67;101821.97;5014062;28;103874;-49
2022/05/01 07:49:44;;;;;;;3.97;3.58;;;;;;;14.46;64.51;101818.94;5014230;28;101927;-50
2022/05/01 07:52:12;;;;;;;4.90;3.95;;;;;;;14.47;64.66;101815.13;5013660;28;102238;-50
2022/05/01 07:54:39;;;;;;;4.13;3.73;;;;;;;14.49;64.64;101812.94;5014823;28;102072;-48
2022/05/01 07:57:05;;;;;;;5.10;3.50;;;;;;;14.50;64.70;101809.16;5002169;28;104063;-48
2022/05/01 07:59:32;;;;;;;3.67;3.38;;;;;;;14.50;64.63;101809.16;4994145;28;101922;-48
2022/05/01 08:01:58;;;;;;;4.15;3.75;;;;;;;14.50;64.61;101812.72;4993566;28;101901;-49
2022/05/01 08:04:30;;;;;;;4.00;3.50;;;;;;;14.52;64.57;101812.41;4994271;28;102128;-52
2022/05/01 08:06:59;;;;;;;4.10;3.70;;;;;;;14.52;64.70;101801.47;4993932;28;104110;-48
2022/05/01 08:09:28;;;;;;;4.90;3.93;;;;;;;14.53;64.42;101806.66;4993641;28;102197;-49
2022/05/01 08:11:55;;;;;;;3.92;3.55;;;;;;;14.54;64.32;101805.59;4993099;28;102422;-52
2022/05/01 08:14:22;;;;;;;4.30;3.65;;;;;;;14.55;64.39;101801.75;4995103;28;101941;-50
2022/05/01 08:16:50;;;;;;;4.00;3.45;;;;;;;14.56;64.85;101797.09;4992933;28;104033;-49
2022/05/01 08:22:04;;;;;;;4.20;3.80;;;;;;;14.55;64.76;101790.78;4993309;28;101977;-49
2022/05/01 08:24:33;;;;;;;;;;;;;;;14.55;64.48;101790.78;4997177;28;101946;-48
2022/05/01 08:27:05;;;;;;;3.53;3.22;;;;;;;14.56;64.61;101795.16;5011608;28;103891;-50
2022/05/01 08:29:33;;;;;;;3.78;3.40;;;;;;;14.58;64.46;101784.75;5000098;28;102689;-50
2022/05/01 08:32:01;;;;;;;4.15;3.53;;;;;;;14.60;64.20;101788.03;5003107;28;102139;-48
2022/05/01 08:34:27;;;;;;;4.40;3.45;;;;;;;14.58;64.68;101787.50;5014673;28;102686;-48
2022/05/01 08:36:54;;;;;;;3.63;3.33;;;;;;;14.59;64.41;101780.09;5012840;28;103964;-49
2022/05/01 08:39:22;;;;;;;3.65;3.35;;;;;;;14.59;64.69;101780.94;5013594;28;102279;-49
2022/05/01 08:41:50;;;;;;;3.60;3.30;;;;;;;14.60;64.35;101777.09;5012439;28;101736;-48
2022/05/01 08:44:24;;;;;;;3.38;3.08;;;;;;;14.61;64.48;101783.41;5013727;28;102166;-48
2022/05/01 08:46:56;;;;;;;4.05;3.65;;;;;;;14.62;64.61;101768.59;5012724;28;103909;-49
2022/05/01 08:49:25;;;;;;;3.80;3.40;;;;;;;14.63;64.62;101775.72;5012873;28;102359;-48
2022/05/01 08:51:52;;;;;;;3.50;3.20;;;;;;;14.62;64.54;101769.44;4992592;28;101965;-49
2022/05/01 08:54:18;;;;;;;3.63;3.33;;;;;;;14.62;64.44;101758.47;4993998;28;102145;-51
2022/05/01 08:56:48;;;;;;;3.70;3.30;;;;;;;14.63;64.72;101764.75;4992843;28;103910;-48
2022/05/01 08:59:17;;;;;;;3.50;3.05;;;;;;;14.62;64.41;101758.47;4993268;28;102031;-56
2022/05/01 09:01:45;;;;;;;3.53;3.22;;;;;;;14.63;64.64;101760.09;4992959;28;102216;-49
2022/05/01 09:04:13;;;;;;;4.95;3.70;;;;;;;14.65;64.56;101760.66;4994373;28;101941;-49
2022/05/01 09:06:43;;;;;;;4.18;3.35;;;;;;;14.64;64.69;101761.78;4992029;28;103954;-49
2022/05/01 09:09:11;;;;;;;3.22;2.90;;;;;;;14.65;64.33;101757.94;4993227;28;102343;-49
2022/05/01 09:14:27;;;;;;;3.42;3.13;;;;;;;14.65;64.27;101757.94;5013138;28;102432;-50
2022/05/01 09:17:15;;;;;;;3.80;3.45;;;;;;;14.64;64.54;101748.06;4995385;28;103964;-52
2022/05/01 09:19:43;;;;;;;3.88;3.47;;;;;;;14.66;64.38;101756.81;4993200;28;101827;-48
2022/05/01 09:22:12;;;;;;;3.75;3.42;;;;;;;14.65;64.65;101751.63;4991973;28;101905;-48
2022/05/01 09:24:39;;;;;;;4.40;3.47;;;;;;;14.65;64.65;101752.44;4998461;28;102458;-51
2022/05/01 09:27:05;;;;;;;3.92;3.55;;;;;;;14.65;64.37;101748.88;5012158;28;103884;-49
2022/05/01 09:29:34;;;;;;;4.25;3.85;;;;;;;14.66;64.54;101747.78;5012931;28;102243;-49
2022/05/01 09:32:03;;;;;;;3.85;3.53;;;;;;;14.64;64.74;101745.34;5012304;28;101807;-48
2022/05/01 09:34:31;;;;;;;3.47;3.17;;;;;;;14.64;64.68;101739.84;5013251;28;102383;-48
2022/05/01 09:36:59;;;;;;;4.00;3.60;;;;;;;14.65;64.50;101740.66;5012088;28;104165;-49
2022/05/01 09:39:29;;;;;;;3.83;3.50;;;;;;;14.65;64.43;101737.94;5012845;28;101997;-49
2022/05/01 09:42:16;;;;;;;3.40;3.10;;;;;;;14.65;64.39;101737.94;5011947;28;102232;-48
2022/05/01 09:45:03;;;;;;;4.05;3.10;;;;;;;14.65;64.59;101729.72;5013315;28;102250;-49
2022/05/01 09:47:41;;;;;;;3.72;3.42;;;;;;;14.66;64.42;101739.56;5011241;28;104175;-48
2022/05/01 09:50:11;;;;;;;3.50;3.20;;;;;;;14.66;64.57;101729.41;5012503;28;102462;-49
2022/05/01 09:52:58;;;;;;;3.35;3.05;;;;;;;14.65;64.31;101719.56;5012245;28;102410;-49
2022/05/01 09:55:26;;;;;;;4.60;3.40;;;;;;;14.66;64.75;101723.13;5012414;28;102318;-49
2022/05/01 09:58:08;;;;;;;3.83;3.40;;;;;;;14.66;64.31;101715.72;5011907;28;104086;-50
2022/05/01 10:00:39;;;;;;;3.60;3.30;;;;;;;14.66;64.32;101715.72;5012096;28;102391;-50
2022/05/01 10:03:23;;;;;;;4.45;3.33;;;;;;;14.66;64.64;101720.38;5012075;28;102430;-49
2022/05/01 10:05:53;;;;;;;3.50;3.20;;;;;;;14.64;64.36;101717.94;5012758;28;102360;-49
2022/05/01 10:08:20;;;;;;;4.07;2.97;;;;;;;14.64;64.32;101712.47;5011388;28;103903;-50
2022/05/01 10:10:51;;;;;;;3.50;3.20;;;;;;;14.64;64.40;101717.94;5011971;28;101897;-48
2022/05/01 10:13:19;;;;;;;3.70;3.40;;;;;;;14.65;64.36;101713.28;5011867;28;102489;-50
2022/05/01 10:15:48;;;;;;;2.75;2.55;;;;;;;14.64;64.54;101704.25;5012607;28;102628;-49
2022/05/01 10:18:16;;;;;;;3.40;3.10;;;;;;;14.64;64.37;101711.59;5011063;28;103914;-49
2022/05/01 10:20:43;;;;;;;3.50;3.20;;;;;;;14.64;64.37;101706.97;5011383;28;102360;-50
2022/05/01 10:23:11;;;;;;;3.47;3.17;;;;;;;14.64;64.54;101706.13;5000887;28;102269;-48
2022/05/01 10:25:46;;;;;;;3.43;3.13;;;;;;;14.63;64.57;101710.78;4992983;28;102039;-50
2022/05/01 10:28:25;;;;;;;3.65;3.35;;;;;;;14.61;64.58;101707.53;4998117;28;103843;-50
2022/05/01 10:34:04;;;;;;;3.60;3.30;;;;;;;14.62;64.24;101700.94;4996664;28;102184;-48
2022/05/01 10:37:04;;;;;;;5.32;3.58;;;;;;;14.60;64.51;101705.84;4992159;28;102290;-49
2022/05/01 10:39:34;;;;;;;3.70;3.28;;;;;;;14.60;64.51;101694.91;4991210;28;103992;-48
2022/05/01 10:42:02;;;;;;;3.85;3.20;;;;;;;14.59;64.64;101690.53;5007005;28;101983;-49
2022/05/01 10:44:30;;;;;;;3.72;3.33;;;;;;;14.59;64.45;101690.53;5011440;28;102263;-50
2022/05/01 10:47:06;;;;;;;3.77;3.47;;;;;;;14.60;64.40;101694.06;5011215;28;102034;-49
2022/05/01 10:49:36;;;;;;;4.22;3.83;;;;;;;14.60;64.57;101691.34;5009642;28;103739;-49
2022/05/01 10:52:19;;;;;;;3.70;3.40;;;;;;;14.59;64.47;101692.44;5011545;28;102255;-50
2022/05/01 10:54:54;;;;;;;3.38;3.03;;;;;;;14.59;64.37;101696.00;5011025;28;102393;-50
2022/05/01 10:57:23;;;;;;;3.33;3.05;;;;;;;14.61;64.71;101695.75;5011952;28;102434;-49
2022/05/01 10:59:51;;;;;;;3.55;2.92;;;;;;;14.59;64.81;101687.78;5011056;28;103610;-48
2022/05/01 11:02:25;;;;;;;3.05;2.67;;;;;;;14.58;64.47;101675.19;5005944;28;102687;-49
2022/05/01 11:04:56;;;;;;;3.45;3.00;;;;;;;14.58;64.68;101691.63;4991253;28;102347;-48
2022/05/01 11:07:25;;;;;;;4.03;3.63;;;;;;;14.57;64.35;101690.00;4991390;28;102334;-48
2022/05/01 11:09:53;;;;;;;3.63;3.33;;;;;;;14.56;64.22;101688.31;4990790;28;103954;-48
2022/05/01 11:12:22;;;;;;;3.60;3.30;;;;;;;14.56;64.41;101691.06;4990909;28;101867;-49
2022/05/01 11:14:51;;;;;;;3.70;3.38;;;;;;;14.56;64.11;101677.38;4990511;28;102216;-49
2022/05/01 11:17:44;;;;;;;3.22;2.92;;;;;;;14.55;64.50;101677.66;5001323;28;102523;-49
2022/05/01 11:20:29;;;;;;;3.60;3.30;;;;;;;14.55;64.58;101681.22;5009447;28;104102;-48
2022/05/01 11:22:56;;;;;;;4.20;3.80;;;;;;;14.55;64.32;101674.91;5011098;28;102511;-49
2022/05/01 11:25:33;;;;;;;3.65;3.35;;;;;;;14.55;64.31;101670.25;5009988;28;102272;-49
2022/05/01 11:28:00;;;;;;;3.60;3.28;;;;;;;14.54;64.53;101674.09;5011816;28;102389;-50
2022/05/01 11:30:35;;;;;;;3.60;3.30;;;;;;;14.54;64.41;101674.09;5009722;28;103637;-49
2022/05/01 11:33:06;;;;;;;2.80;2.60;;;;;;;14.54;64.52;101660.41;5011399;28;101890;-49
2022/05/01 11:36:02;;;;;;;3.58;3.28;;;;;;;14.53;64.15;101664.22;5010029;28;102442;-50
2022/05/01 11:38:32;;;;;;;4.20;3.13;;;;;;;14.53;64.21;101663.41;5011735;28;102361;-49
2022/05/01 11:41:00;;;;;;;;;;;;;;;14.52;64.76;101665.31;5009949;28;103751;-50
2022/05/01 11:43:28;;;;;;;4.30;3.90;;;;;;;14.53;64.59;101666.97;5010928;28;101900;-48
2022/05/01 11:45:56;;;;;;;4.47;3.72;;;;;;;14.52;64.57;101662.59;5000650;28;102323;-48
2022/05/01 11:48:24;;;;;;;3.80;3.50;;;;;;;14.52;64.44;101659.84;4991403;28;102273;-50